createdAt,value
2023-02-12T00:02:26.604Z,80.20
2023-02-12T00:04:53.712Z,75.40
2023-02-12T00:07:20.337Z,43.40
2023-02-12T00:09:47.182Z,60.80
2023-02-12T00:12:14.040Z,60.20
2023-02-12T00:14:40.673Z,62.00
2023-02-12T00:17:07.517Z,63.20
2023-02-12T00:19:34.354Z,64.50
2023-02-12T00:22:00.940Z,57.00
2023-02-12T00:24:28.447Z,61.80
2023-02-12T00:26:55.106Z,60.40
2023-02-12T00:29:21.776Z,62.70
2023-02-12T00:31:48.612Z,59.30
2023-02-12T00:34:15.839Z,54.10
2023-02-12T00:36:42.661Z,63.60
2023-02-12T00:39:10.176Z,58.90
2023-02-12T00:41:36.957Z,58.30
2023-02-12T00:44:03.693Z,60.50
2023-02-12T00:46:30.750Z,62.10
2023-02-12T00:48:57.687Z,51.00
2023-02-12T00:51:24.524Z,44.80
2023-02-12T00:53:51.366Z,59.70
2023-02-12T00:56:18.216Z,65.40
2023-02-12T00:58:47.930Z,60.30
2023-02-12T01:01:14.629Z,63.90
2023-02-12T01:03:41.417Z,54.40
2023-02-12T01:06:08.664Z,60.20
2023-02-12T01:08:35.708Z,62.80
2023-02-12T01:11:04.184Z,61.70
2023-02-12T01:13:31.859Z,54.70
2023-02-12T01:16:14.807Z,86.60
2023-02-12T01:18:42.662Z,95.10
2023-02-12T01:21:13.058Z,99.10
2023-02-12T01:23:40.522Z,104.70
2023-02-12T01:26:07.634Z,106.40
2023-02-12T01:28:34.474Z,88.30
2023-02-12T01:31:01.362Z,96.80
2023-02-12T01:33:28.226Z,89.30
2023-02-12T01:35:55.203Z,97.00
2023-02-12T01:38:22.399Z,79.00
2023-02-12T01:40:49.232Z,90.10
2023-02-12T01:43:16.080Z,89.50
2023-02-12T01:45:48.051Z,89.40
2023-02-12T01:48:16.720Z,88.70
2023-02-12T01:50:44.594Z,80.40
2023-02-12T01:53:20.141Z,82.30
2023-02-12T01:55:48.921Z,69.60
2023-02-12T01:58:16.410Z,62.30
2023-02-12T02:00:43.227Z,60.90
2023-02-12T02:03:10.123Z,76.00
2023-02-12T02:05:45.107Z,77.80
2023-02-12T02:08:12.513Z,84.70
2023-02-12T02:10:39.606Z,76.20
2023-02-12T02:13:25.512Z,61.80
2023-02-12T02:15:55.207Z,69.70
2023-02-12T02:18:22.041Z,61.10
2023-02-12T02:20:48.647Z,56.40
2023-02-12T02:23:37.228Z,64.50
2023-02-12T02:26:13.089Z,60.20
2023-02-12T02:28:51.978Z,69.10
2023-02-12T02:31:30.252Z,64.30
2023-02-12T02:34:00.044Z,67.60
2023-02-12T02:36:47.937Z,74.10
2023-02-12T02:39:30.376Z,101.40
2023-02-12T02:41:59.711Z,102.20
2023-02-12T02:44:49.250Z,122.90
2023-02-12T02:47:17.723Z,115.70
2023-02-12T02:49:47.229Z,113.10
2023-02-12T02:52:19.057Z,109.30
2023-02-12T02:54:48.704Z,104.50
2023-02-12T02:57:18.427Z,95.80
2023-02-12T02:59:51.604Z,105.20
2023-02-12T03:02:20.453Z,73.80
2023-02-12T03:04:50.810Z,68.20
2023-02-12T03:07:34.446Z,96.90
2023-02-12T03:10:03.827Z,88.50
2023-02-12T03:12:33.464Z,63.20
2023-02-12T03:15:03.442Z,74.40
2023-02-12T03:17:35.947Z,71.70
2023-02-12T03:20:05.457Z,72.90
2023-02-12T03:22:34.579Z,70.30
2023-02-12T03:25:09.745Z,67.90
2023-02-12T03:27:38.283Z,60.90
2023-02-12T03:30:07.234Z,56.90
2023-02-12T03:32:37.297Z,58.90
2023-02-12T03:35:09.671Z,55.70
2023-02-12T03:37:39.065Z,66.60
2023-02-12T03:40:05.671Z,60.50
2023-02-12T03:42:51.364Z,56.50
2023-02-12T03:45:18.120Z,72.90
2023-02-12T03:48:05.053Z,87.00
2023-02-12T03:50:40.882Z,85.20
2023-02-12T03:53:07.821Z,82.30
2023-02-12T03:55:36.821Z,86.90
2023-02-12T03:58:04.274Z,77.70
2023-02-12T04:00:31.529Z,73.50
2023-02-12T04:02:58.203Z,81.70
2023-02-12T04:05:26.646Z,71.10
2023-02-12T04:07:55.952Z,73.80
2023-02-12T04:10:27.514Z,72.00
2023-02-12T04:12:54.198Z,72.90
2023-02-12T04:15:20.846Z,67.00
2023-02-12T04:18:02.784Z,68.20
2023-02-12T04:20:50.323Z,68.20
2023-02-12T04:23:21.853Z,70.40
2023-02-12T04:25:48.691Z,70.00
2023-02-12T04:28:15.618Z,71.20
2023-02-12T04:31:02.577Z,46.50
2023-02-12T04:33:34.619Z,55.30
2023-02-12T04:36:11.493Z,61.50
2023-02-12T04:38:44.281Z,57.10
2023-02-12T04:41:11.337Z,51.40
2023-02-12T04:43:37.977Z,52.30
2023-02-12T04:46:05.711Z,45.00
2023-02-12T04:48:34.681Z,49.10
2023-02-12T04:51:01.564Z,57.40
2023-02-12T04:53:28.399Z,51.40
2023-02-12T04:55:55.915Z,54.50
2023-02-12T04:58:22.913Z,62.90
2023-02-12T05:00:49.592Z,83.50
2023-02-12T05:03:16.180Z,120.20
2023-02-12T05:05:43.030Z,137.20
2023-02-12T05:08:09.870Z,83.70
2023-02-12T05:10:36.708Z,71.70
2023-02-12T05:13:03.554Z,69.60
2023-02-12T05:15:30.430Z,76.90
2023-02-12T05:17:57.463Z,64.60
2023-02-12T05:20:24.288Z,81.00
2023-02-12T05:22:54.401Z,53.60
2023-02-12T05:25:21.650Z,65.60
2023-02-12T05:27:48.491Z,80.80
2023-02-12T05:30:15.341Z,86.70
2023-02-12T05:32:42.179Z,78.70
2023-02-12T05:35:08.971Z,69.80
2023-02-12T05:37:36.433Z,65.10
2023-02-12T05:40:06.595Z,69.00
2023-02-12T05:42:33.244Z,48.40
2023-02-12T05:45:00.113Z,81.20
2023-02-12T05:47:26.929Z,240.30
2023-02-12T05:49:53.767Z,75.20
2023-02-12T05:52:20.395Z,287.90
2023-02-12T05:54:49.295Z,523.30
2023-02-12T05:57:16.133Z,202.00
2023-02-12T05:59:42.763Z,94.20
2023-02-12T06:02:09.350Z,90.50
2023-02-12T06:04:36.042Z,71.70
2023-02-12T06:07:02.698Z,82.60
2023-02-12T06:09:29.542Z,81.00
2023-02-12T06:11:56.152Z,78.50
2023-02-12T06:14:23.006Z,77.80
2023-02-12T06:16:50.273Z,71.20
2023-02-12T06:19:17.725Z,58.50
2023-02-12T06:21:44.551Z,49.50
2023-02-12T06:24:12.623Z,41.80
2023-02-12T06:26:39.225Z,46.00
2023-02-12T06:29:05.842Z,46.20
2023-02-12T06:31:34.543Z,43.30
2023-02-12T06:34:03.678Z,45.00
2023-02-12T06:36:30.556Z,42.00
2023-02-12T06:38:57.136Z,32.00
2023-02-12T06:41:24.427Z,39.50
2023-02-12T06:43:51.149Z,41.40
2023-02-12T06:46:17.961Z,50.10
2023-02-12T06:48:44.744Z,50.40
2023-02-12T06:51:13.241Z,43.80
2023-02-12T06:53:40.480Z,60.50
2023-02-12T06:56:11.478Z,69.10
2023-02-12T06:58:38.876Z,64.50
2023-02-12T07:01:13.792Z,66.70
2023-02-12T07:03:41.604Z,55.20
2023-02-12T07:06:09.024Z,56.20
2023-02-12T07:08:36.077Z,49.50
2023-02-12T07:11:03.547Z,40.40
2023-02-12T07:13:30.370Z,56.10
2023-02-12T07:15:57.437Z,72.70
2023-02-12T07:18:24.454Z,56.40
2023-02-12T07:20:51.043Z,61.80
2023-02-12T07:23:17.726Z,41.30
2023-02-12T07:25:44.370Z,45.60
2023-02-12T07:28:11.280Z,44.20
2023-02-12T07:30:39.947Z,48.10
2023-02-12T07:33:07.759Z,57.60
2023-02-12T07:35:34.397Z,55.10
2023-02-12T07:38:01.247Z,46.80
2023-02-12T07:40:27.852Z,39.00
2023-02-12T07:42:55.797Z,51.80
2023-02-12T07:45:23.031Z,61.20
2023-02-12T07:47:50.320Z,47.90
2023-02-12T07:50:17.500Z,46.30
2023-02-12T07:52:44.559Z,52.00
2023-02-12T07:55:11.273Z,40.50
2023-02-12T07:57:38.034Z,47.30
2023-02-12T08:00:05.281Z,42.20
2023-02-12T08:02:39.181Z,39.10
2023-02-12T08:05:06.340Z,49.70
2023-02-12T08:07:33.185Z,47.90
2023-02-12T08:10:00.443Z,43.10
2023-02-12T08:12:27.032Z,40.00
2023-02-12T08:14:54.531Z,50.10
2023-02-12T08:17:21.376Z,46.70
2023-02-12T08:19:48.015Z,48.20
2023-02-12T08:22:14.686Z,44.60
2023-02-12T08:24:42.713Z,42.30
2023-02-12T08:27:09.562Z,36.40
2023-02-12T08:29:36.397Z,40.20
2023-02-12T08:32:03.811Z,43.00
2023-02-12T08:34:33.170Z,44.70
2023-02-12T08:37:00.213Z,41.80
2023-02-12T08:39:27.947Z,41.20
2023-02-12T08:41:55.735Z,46.20
2023-02-12T08:44:22.358Z,102.20
2023-02-12T08:46:50.982Z,62.30
2023-02-12T08:49:22.190Z,44.60
2023-02-12T08:51:50.535Z,37.10
2023-02-12T08:54:18.615Z,36.20
2023-02-12T08:56:45.796Z,43.90
2023-02-12T08:59:13.251Z,40.10
2023-02-12T09:01:43.071Z,38.20
2023-02-12T09:04:18.195Z,52.00
2023-02-12T09:06:45.719Z,44.30
2023-02-12T09:09:12.493Z,38.00
2023-02-12T09:11:39.543Z,45.80
2023-02-12T09:14:07.818Z,39.20
2023-02-12T09:16:36.981Z,33.90
2023-02-12T09:19:04.171Z,48.30
2023-02-12T09:21:31.050Z,42.50
2023-02-12T09:23:57.851Z,43.30
2023-02-12T09:26:28.579Z,42.60
2023-02-12T09:28:55.637Z,42.00
2023-02-12T09:31:26.978Z,54.30
2023-02-12T09:33:55.459Z,49.40
2023-02-12T09:36:22.769Z,68.50
2023-02-12T09:38:50.175Z,56.20
2023-02-12T09:41:36.681Z,49.70
2023-02-12T09:44:09.865Z,49.70
2023-02-12T09:46:42.668Z,50.40
2023-02-12T09:49:11.574Z,69.80
2023-02-12T09:51:40.215Z,114.00
2023-02-12T09:54:14.880Z,64.90
2023-02-12T09:56:43.733Z,51.60
2023-02-12T09:59:15.499Z,43.00
2023-02-12T10:01:42.513Z,45.20
2023-02-12T10:04:09.439Z,42.10
2023-02-12T10:06:41.123Z,37.60
2023-02-12T10:09:19.627Z,38.90
2023-02-12T10:12:01.871Z,31.70
2023-02-12T10:14:42.434Z,34.20
2023-02-12T10:17:46.451Z,34.60
2023-02-12T10:20:19.594Z,29.10
2023-02-12T10:23:05.441Z,21.30
2023-02-12T10:25:35.164Z,25.90
2023-02-12T10:28:08.803Z,24.20
2023-02-12T10:30:55.132Z,23.80
2023-02-12T10:33:36.374Z,22.10
2023-02-12T10:36:25.388Z,25.70
2023-02-12T10:38:55.901Z,24.80
2023-02-12T10:41:26.574Z,24.40
2023-02-12T10:43:54.097Z,25.40
2023-02-12T10:46:20.973Z,22.60
2023-02-12T10:48:56.341Z,22.80
2023-02-12T10:51:30.594Z,18.40
2023-02-12T10:53:58.247Z,23.00
2023-02-12T10:56:26.543Z,25.70
2023-02-12T10:58:59.808Z,25.30
2023-02-12T11:01:28.433Z,19.70
2023-02-12T11:03:57.202Z,17.90
2023-02-12T11:06:27.218Z,21.70
2023-02-12T11:08:55.074Z,15.90
2023-02-12T11:11:22.419Z,20.70
2023-02-12T11:13:55.215Z,17.00
2023-02-12T11:16:29.018Z,16.20
2023-02-12T11:19:20.464Z,18.60
2023-02-12T11:21:49.015Z,17.90
2023-02-12T11:24:28.622Z,19.20
2023-02-12T11:27:17.919Z,17.60
2023-02-12T11:29:50.400Z,17.50
2023-02-12T11:32:18.629Z,15.50
2023-02-12T11:35:04.351Z,17.70
2023-02-12T11:37:34.378Z,18.30
2023-02-12T11:40:02.250Z,17.20
2023-02-12T11:42:29.933Z,15.70
2023-02-12T11:44:58.599Z,8.90
2023-02-12T11:47:35.075Z,11.70
2023-02-12T11:50:16.240Z,8.60
2023-02-12T11:52:43.083Z,9.60
2023-02-12T11:55:23.512Z,5.80
2023-02-12T11:57:52.916Z,4.70
2023-02-12T12:00:29.034Z,3.90
2023-02-12T12:03:08.172Z,5.70
2023-02-12T12:05:48.000Z,5.70
2023-02-12T12:08:21.487Z,4.20
2023-02-12T12:11:10.865Z,5.00
2023-02-12T12:13:42.606Z,4.90
2023-02-12T12:16:33.080Z,4.40
2023-02-12T12:19:23.608Z,4.70
2023-02-12T12:22:10.316Z,5.30
2023-02-12T12:24:38.598Z,4.40
2023-02-12T12:27:35.941Z,5.70
2023-02-12T12:30:07.039Z,5.00
2023-02-12T12:32:36.393Z,7.40
2023-02-12T12:35:04.067Z,4.40
2023-02-12T12:37:35.396Z,5.90
2023-02-12T12:40:18.209Z,6.10
2023-02-12T12:42:52.158Z,3.90
2023-02-12T12:45:39.180Z,7.70
2023-02-12T12:48:06.599Z,6.10
2023-02-12T12:50:33.672Z,6.70
2023-02-12T12:53:20.176Z,7.40
2023-02-12T12:55:47.820Z,4.90
2023-02-12T12:58:21.785Z,4.50
2023-02-12T13:00:55.100Z,4.50
2023-02-12T13:03:41.928Z,3.70
2023-02-12T13:06:25.367Z,5.10
2023-02-12T13:09:02.848Z,4.30
2023-02-12T13:11:42.627Z,5.00
2023-02-12T13:14:30.947Z,4.70
2023-02-12T13:17:14.290Z,5.60
2023-02-12T13:19:53.638Z,3.70
2023-02-12T13:22:26.252Z,5.20
2023-02-12T13:25:22.736Z,6.40
2023-02-12T13:27:52.547Z,4.40
2023-02-12T13:30:23.684Z,5.10
2023-02-12T13:33:11.827Z,3.50
2023-02-12T13:35:42.490Z,6.00
2023-02-12T13:38:16.586Z,5.40
2023-02-12T13:40:44.225Z,5.70
2023-02-12T13:43:11.908Z,7.00
2023-02-12T13:45:59.109Z,5.30
2023-02-12T13:48:46.884Z,6.20
2023-02-12T13:51:24.435Z,6.40
2023-02-12T13:54:12.584Z,6.60
2023-02-12T13:56:43.925Z,6.50
2023-02-12T13:59:30.865Z,8.90
2023-02-12T14:02:06.405Z,5.40
2023-02-12T14:04:35.167Z,4.20
2023-02-12T14:07:04.080Z,4.20
2023-02-12T14:09:36.542Z,4.40
2023-02-12T14:12:07.198Z,5.80
2023-02-12T14:14:58.829Z,5.70
2023-02-12T14:17:31.640Z,5.70
2023-02-12T14:20:09.999Z,6.20
2023-02-12T14:22:44.078Z,4.50
2023-02-12T14:25:16.227Z,3.80
2023-02-12T14:27:47.351Z,6.80
2023-02-12T14:30:16.023Z,7.30
2023-02-12T14:32:47.376Z,6.80
2023-02-12T14:35:28.006Z,4.80
2023-02-12T14:37:59.950Z,5.30
2023-02-12T14:40:44.348Z,8.00
2023-02-12T14:43:31.753Z,7.30
2023-02-12T14:46:20.756Z,5.10
2023-02-12T14:49:00.147Z,8.50
2023-02-12T14:51:39.222Z,8.70
2023-02-12T14:54:11.283Z,5.50
2023-02-12T14:56:44.936Z,6.40
2023-02-12T14:59:16.754Z,5.20
2023-02-12T15:01:44.778Z,6.80
2023-02-12T15:04:18.164Z,5.30
2023-02-12T15:07:02.316Z,5.70
2023-02-12T15:09:37.045Z,5.10
2023-02-12T15:12:09.003Z,8.30
2023-02-12T15:14:38.083Z,6.20
2023-02-12T15:17:24.311Z,5.30
2023-02-12T15:20:03.107Z,4.30
2023-02-12T15:22:32.829Z,6.60
2023-02-12T15:25:19.531Z,16.30
2023-02-12T15:27:52.321Z,13.20
2023-02-12T15:30:26.494Z,11.30
2023-02-12T15:33:01.768Z,11.20
2023-02-12T15:35:31.889Z,12.60
2023-02-12T15:38:03.041Z,7.80
2023-02-12T15:40:32.344Z,6.70
2023-02-12T15:43:01.580Z,6.50
2023-02-12T15:45:31.255Z,5.70
2023-02-12T15:48:05.965Z,12.00
2023-02-12T15:50:34.855Z,5.70
2023-02-12T15:53:03.345Z,8.80
2023-02-12T15:55:39.640Z,6.20
2023-02-12T15:58:22.632Z,7.20
2023-02-12T16:00:50.995Z,10.10
2023-02-12T16:03:41.787Z,7.80
2023-02-12T16:06:17.477Z,5.90
2023-02-12T16:08:46.870Z,7.20
2023-02-12T16:11:19.118Z,5.70
2023-02-12T16:13:52.127Z,8.20
2023-02-12T16:16:28.706Z,7.00
2023-02-12T16:19:14.989Z,9.50
2023-02-12T16:21:42.437Z,7.30
2023-02-12T16:24:21.541Z,6.30
2023-02-12T16:26:50.252Z,7.30
2023-02-12T16:29:18.341Z,9.50
2023-02-12T16:32:01.977Z,6.70
2023-02-12T16:34:31.769Z,7.50
2023-02-12T16:36:59.952Z,5.60
2023-02-12T16:39:47.475Z,8.00
2023-02-12T16:42:15.914Z,7.50
2023-02-12T16:44:44.436Z,7.40
2023-02-12T16:47:21.429Z,6.30
2023-02-12T16:50:00.766Z,7.20
2023-02-12T16:52:40.396Z,16.00
2023-02-12T16:55:19.113Z,117.10
2023-02-12T16:57:47.594Z,43.70
2023-02-12T17:00:17.824Z,18.30
2023-02-12T17:02:48.313Z,31.80
2023-02-12T17:05:19.818Z,33.40
2023-02-12T17:07:48.282Z,47.80
2023-02-12T17:10:19.531Z,40.30
2023-02-12T17:12:52.354Z,26.50
2023-02-12T17:15:31.342Z,21.50
2023-02-12T17:18:00.171Z,15.50
2023-02-12T17:20:29.120Z,13.60
2023-02-12T17:23:03.738Z,12.40
2023-02-12T17:25:35.540Z,9.60
2023-02-12T17:28:03.147Z,10.60
2023-02-12T17:30:33.248Z,13.90
2023-02-12T17:33:03.308Z,11.40
2023-02-12T17:35:32.904Z,10.60
2023-02-12T17:38:00.361Z,12.30
2023-02-12T17:40:27.815Z,15.00
2023-02-12T17:42:56.711Z,19.00
2023-02-12T17:45:25.707Z,22.10
2023-02-12T17:47:55.525Z,12.90
2023-02-12T17:50:24.511Z,12.00
2023-02-12T17:52:53.412Z,31.80
2023-02-12T17:55:22.188Z,40.40
2023-02-12T17:57:54.229Z,25.20
2023-02-12T18:00:23.044Z,23.10
2023-02-12T18:02:52.644Z,32.60
2023-02-12T18:05:23.456Z,22.00
2023-02-12T18:07:52.988Z,18.60
2023-02-12T18:10:21.983Z,22.50
2023-02-12T18:12:50.967Z,20.70
2023-02-12T18:15:23.134Z,21.30
2023-02-12T18:17:51.245Z,21.80
2023-02-12T18:20:19.480Z,21.60
2023-02-12T18:22:49.122Z,19.50
2023-02-12T18:25:21.513Z,25.70
2023-02-12T18:27:49.966Z,32.60
2023-02-12T18:30:19.871Z,192.50
2023-02-12T18:32:48.439Z,167.30
2023-02-12T18:35:17.853Z,103.90
2023-02-12T18:37:48.583Z,64.50
2023-02-12T18:40:16.213Z,105.30
2023-02-12T18:42:51.922Z,105.70
2023-02-12T18:45:20.937Z,100.60
2023-02-12T18:47:49.774Z,114.10
2023-02-12T18:50:20.223Z,87.20
2023-02-12T18:52:48.987Z,78.10
2023-02-12T18:55:18.289Z,88.40
2023-02-12T18:57:48.271Z,87.80
2023-02-12T19:00:16.484Z,78.30
2023-02-12T19:02:44.959Z,67.00
2023-02-12T19:05:13.170Z,61.60
2023-02-12T19:07:46.627Z,53.00
2023-02-12T19:10:14.699Z,59.70
2023-02-12T19:12:43.380Z,73.70
2023-02-12T19:15:12.270Z,42.40
2023-02-12T19:17:40.973Z,43.20
2023-02-12T19:20:14.464Z,50.80
2023-02-12T19:22:42.944Z,55.30
2023-02-12T19:25:16.444Z,56.80
2023-02-12T19:27:46.350Z,50.10
2023-02-12T19:30:16.857Z,55.80
2023-02-12T19:32:48.556Z,43.30
2023-02-12T19:35:21.558Z,40.80
2023-02-12T19:37:51.236Z,32.60
2023-02-12T19:40:23.684Z,34.10
2023-02-12T19:42:52.186Z,40.30
2023-02-12T19:45:21.398Z,34.70
2023-02-12T19:47:52.812Z,36.60
2023-02-12T19:50:21.249Z,29.10
2023-02-12T19:52:52.960Z,29.00
2023-02-12T19:55:22.710Z,31.10
2023-02-12T19:57:51.266Z,38.30
2023-02-12T20:00:20.483Z,51.60
2023-02-12T20:02:52.043Z,59.30
2023-02-12T20:05:21.380Z,70.30
2023-02-12T20:07:52.666Z,77.50
2023-02-12T20:10:24.489Z,86.70
2023-02-12T20:12:54.141Z,85.20
2023-02-12T20:15:27.426Z,84.80
2023-02-12T20:17:56.625Z,79.20
2023-02-12T20:20:25.208Z,71.50
2023-02-12T20:22:53.285Z,68.00
2023-02-12T20:25:20.951Z,58.70
2023-02-12T20:27:50.354Z,50.00
2023-02-12T20:30:27.423Z,49.40
2023-02-12T20:32:56.600Z,40.70
2023-02-12T20:35:28.854Z,41.90
2023-02-12T20:37:56.460Z,46.20
2023-02-12T20:40:24.537Z,44.50
2023-02-12T20:42:52.186Z,42.80
2023-02-12T20:45:19.475Z,47.40
2023-02-12T20:47:51.009Z,52.50
2023-02-12T20:50:20.644Z,51.70
2023-02-12T20:52:49.177Z,68.70
2023-02-12T20:55:17.809Z,111.90
2023-02-12T20:57:47.983Z,120.00
2023-02-12T21:00:18.673Z,105.70
2023-02-12T21:02:46.323Z,87.10
2023-02-12T21:05:18.841Z,80.10
2023-02-12T21:07:51.318Z,76.20
2023-02-12T21:10:19.806Z,83.10
2023-02-12T21:12:48.497Z,76.60
2023-02-12T21:15:17.379Z,67.60
2023-02-12T21:17:45.250Z,81.00
2023-02-12T21:20:13.320Z,64.10
2023-02-12T21:22:41.499Z,63.10
2023-02-12T21:25:09.872Z,54.00
2023-02-12T21:27:40.722Z,53.80
2023-02-12T21:30:08.787Z,50.80
2023-02-12T21:32:37.158Z,43.90
2023-02-12T21:35:04.573Z,35.90
2023-02-12T21:37:31.455Z,37.60
2023-02-12T21:39:58.702Z,30.90
2023-02-12T21:42:25.551Z,40.10
2023-02-12T21:44:52.703Z,31.10
2023-02-12T21:47:19.959Z,31.50
2023-02-12T21:49:47.318Z,23.70
2023-02-12T21:52:14.351Z,29.10
2023-02-12T21:54:41.207Z,21.50
2023-02-12T21:57:09.260Z,21.80
2023-02-12T21:59:36.926Z,23.70
2023-02-12T22:02:04.092Z,26.70
2023-02-12T22:04:31.050Z,30.70
2023-02-12T22:06:59.912Z,24.90
2023-02-12T22:09:26.764Z,24.30
2023-02-12T22:11:53.544Z,26.50
2023-02-12T22:14:21.054Z,31.50
2023-02-12T22:16:47.830Z,55.20
2023-02-12T22:19:15.171Z,50.70
2023-02-12T22:21:42.615Z,52.40
2023-02-12T22:24:11.076Z,47.90
2023-02-12T22:26:37.720Z,53.50
2023-02-12T22:29:06.197Z,43.60
2023-02-12T22:31:34.185Z,55.10
2023-02-12T22:34:02.396Z,50.40
2023-02-12T22:36:29.791Z,56.70
2023-02-12T22:38:58.082Z,54.50
2023-02-12T22:41:25.351Z,53.50
2023-02-12T22:43:52.013Z,59.80
2023-02-12T22:46:19.223Z,60.40
2023-02-12T22:48:46.334Z,54.20
2023-02-12T22:51:20.263Z,56.80
2023-02-12T22:53:47.258Z,59.80
2023-02-12T22:56:14.364Z,65.60
2023-02-12T22:58:41.405Z,67.20
2023-02-12T23:01:11.968Z,63.90
2023-02-12T23:03:39.296Z,63.00
2023-02-12T23:06:07.705Z,62.30
2023-02-12T23:08:34.742Z,59.80
2023-02-12T23:11:01.580Z,55.20
2023-02-12T23:13:30.177Z,52.10
2023-02-12T23:15:57.715Z,51.50
2023-02-12T23:18:25.371Z,50.90
2023-02-12T23:20:52.752Z,54.70
2023-02-12T23:23:20.499Z,50.60
2023-02-12T23:25:47.971Z,41.80
2023-02-12T23:28:14.858Z,47.10
2023-02-12T23:30:41.611Z,46.00
2023-02-12T23:33:09.138Z,40.80
2023-02-12T23:35:35.764Z,37.30
2023-02-12T23:38:04.639Z,50.30
2023-02-12T23:40:32.108Z,44.10
2023-02-12T23:42:58.792Z,39.10
2023-02-12T23:45:25.596Z,43.10
2023-02-12T23:47:52.619Z,34.70
2023-02-12T23:50:19.219Z,34.30
2023-02-12T23:52:46.118Z,33.30
2023-02-12T23:55:12.948Z,37.30
2023-02-12T23:57:39.816Z,33.30
